Time;durP1;ratioP1;P1;durP2;ratioP2;P2;SDS_P1;SDS_P2;PMS_P1;PMS_P2;Temp;Humidity;BMP_temperature;BMP_pressure;BME280_temperature;BME280_humidity;BME280_pressure;Samples;Min_cycle;Max_cycle;Signal;HPM_P1;HPM_P2
2023/10/16 00:00:32;;;;;;;1.80;1.63;;;;;;;6.72;90.04;101099.88;5035251;28;20210;-87
2023/10/16 00:03:00;;;;;;;5.03;1.90;;;;;;;6.86;89.33;101074.88;5035298;28;20230;-88
2023/10/16 00:05:31;;;;;;;3.43;1.60;;;;;;;6.84;89.09;101078.31;5035346;28;20280;-87
2023/10/16 00:08:05;;;;;;;1.93;1.50;;;;;;;6.95;89.16;101063.69;5037652;28;20657;-88
2023/10/16 00:10:32;;;;;;;3.33;1.67;;;;;;;6.86;89.33;101066.25;5037492;28;20205;-88
2023/10/16 00:13:04;;;;;;;3.10;1.80;;;;;;;6.61;90.01;101068.66;5037875;28;21126;-88
2023/10/16 00:15:34;;;;;;;2.63;1.70;;;;;;;6.57;90.44;101046.13;5029319;28;20243;-87
2023/10/16 00:18:08;;;;;;;3.13;1.90;;;;;;;6.41;91.91;101031.31;5031260;28;20231;-87
2023/10/16 00:20:36;;;;;;;5.80;1.83;;;;;;;6.59;90.92;101012.44;5027141;28;20205;-88
2023/10/16 00:23:06;;;;;;;3.73;2.00;;;;;;;6.54;91.58;101008.09;5020438;28;20776;-88
2023/10/16 00:25:33;;;;;;;6.73;1.87;;;;;;;6.60;91.34;101004.69;5020583;28;20295;-89
2023/10/16 00:28:01;;;;;;;6.13;2.13;;;;;;;6.66;90.80;101015.09;5016989;28;20203;-87
2023/10/16 00:30:31;;;;;;;4.40;2.40;;;;;;;6.61;90.76;101019.38;5034293;28;20202;-88
2023/10/16 00:32:58;;;;;;;5.37;1.90;;;;;;;6.48;91.83;101015.81;5017424;28;20227;-87
2023/10/16 00:35:24;;;;;;;5.03;1.97;;;;;;;6.46;91.37;101009.75;5017557;28;20325;-89
2023/10/16 00:37:51;;;;;;;9.07;1.90;;;;;;;6.62;91.90;101002.97;5019223;28;20203;-87
2023/10/16 00:40:31;;;;;;;2.87;1.57;;;;;;;6.57;90.96;101005.50;5019497;28;20260;-89
2023/10/16 00:42:59;;;;;;;2.43;1.73;;;;;;;6.54;92.21;101002.00;5029196;28;20229;-87
2023/10/16 00:45:27;;;;;;;3.30;1.80;;;;;;;6.50;92.36;100990.78;5037873;28;20297;-87
2023/10/16 00:47:53;;;;;;;2.97;1.93;;;;;;;6.60;91.61;100993.41;5041782;28;20206;-87
2023/10/16 00:50:22;;;;;;;3.97;1.50;;;;;;;6.66;91.43;100999.53;5039423;28;20206;-87
2023/10/16 00:52:49;;;;;;;2.97;1.70;;;;;;;6.78;90.64;101005.63;5038187;28;20226;-86
2023/10/16 00:55:19;;;;;;;5.63;1.80;;;;;;;6.81;89.33;101026.41;5037403;28;20704;-87
2023/10/16 00:57:48;;;;;;;3.27;1.80;;;;;;;6.84;90.25;101036.78;5035406;28;20265;-87
2023/10/16 01:00:15;;;;;;;1.87;1.30;;;;;;;6.85;89.08;101031.63;5039067;28;20294;-87
2023/10/16 01:02:43;;;;;;;3.83;1.70;;;;;;;6.85;89.46;101031.63;5037668;28;20226;-86
2023/10/16 01:05:10;;;;;;;3.83;2.60;;;;;;;6.85;89.76;101029.00;5037070;28;20206;-87
2023/10/16 01:07:36;;;;;;;4.13;1.70;;;;;;;6.89;89.31;101042.88;5040104;28;20210;-88
2023/10/16 01:10:10;;;;;;;6.20;1.57;;;;;;;6.87;89.89;101050.66;5040560;28;20202;-87
2023/10/16 01:12:37;;;;;;;2.97;1.70;;;;;;;6.87;89.24;101042.00;5040025;28;20226;-88
2023/10/16 01:15:07;;;;;;;2.40;1.40;;;;;;;7.00;89.83;101035.16;5037885;28;20211;-87
2023/10/16 01:17:35;;;;;;;3.70;1.57;;;;;;;6.93;90.11;101035.13;5037917;28;20213;-87
2023/10/16 01:20:02;;;;;;;5.87;1.73;;;;;;;6.78;91.22;101032.47;5038189;28;20309;-88
2023/10/16 01:22:34;;;;;;;3.73;2.00;;;;;;;6.75;91.70;101009.94;5028844;28;20223;-89
2023/10/16 01:25:07;;;;;;;2.03;1.37;;;;;;;6.85;91.68;101003.06;5017162;28;20235;-88
2023/10/16 01:27:37;;;;;;;2.57;1.30;;;;;;;6.88;91.44;100997.91;5020157;28;20250;-89
2023/10/16 01:30:06;;;;;;;5.63;2.10;;;;;;;6.71;92.40;100991.75;5033891;28;20222;-87
2023/10/16 01:32:33;;;;;;;3.17;1.67;;;;;;;6.88;92.28;100974.56;5027024;28;20655;-88
2023/10/16 01:35:00;;;;;;;4.33;1.90;;;;;;;6.96;92.13;100990.16;5016408;28;20206;-88
2023/10/16 01:37:26;;;;;;;2.33;2.00;;;;;;;6.86;91.79;100993.59;5016361;28;20736;-89
2023/10/16 01:39:54;;;;;;;3.17;1.87;;;;;;;6.98;91.40;100993.63;5016627;28;20225;-87
2023/10/16 01:42:23;;;;;;;4.50;1.90;;;;;;;7.08;91.18;100997.16;5017122;28;20229;-90
2023/10/16 01:44:51;;;;;;;5.17;2.03;;;;;;;7.11;91.94;101002.34;5016411;28;20211;-88
2023/10/16 01:47:18;;;;;;;3.67;2.03;;;;;;;6.80;92.31;100994.41;5023122;28;20214;-87
2023/10/16 01:49:47;;;;;;;5.33;2.27;;;;;;;6.88;93.06;100982.34;5018458;28;20596;-88
2023/10/16 01:52:15;;;;;;;3.87;2.00;;;;;;;6.94;92.68;100984.09;5017743;28;20254;-90
2023/10/16 01:54:45;;;;;;;3.00;1.80;;;;;;;7.07;91.75;100993.66;5023122;28;20214;-89
2023/10/16 01:57:12;;;;;;;4.27;2.10;;;;;;;6.63;93.29;100981.31;5028346;28;20203;-87
2023/10/16 01:59:42;;;;;;;2.70;1.90;;;;;;;6.75;93.55;100960.63;5018664;28;21500;-88
2023/10/16 02:02:09;;;;;;;5.43;2.60;;;;;;;6.81;94.48;100954.63;5033394;28;20219;-88
2023/10/16 02:04:37;;;;;;;3.17;1.93;;;;;;;6.89;92.78;100958.09;5014863;28;20226;-89
2023/10/16 02:07:04;;;;;;;4.57;1.40;;;;;;;6.90;92.40;100967.66;5016116;28;20242;-90
2023/10/16 02:09:33;;;;;;;3.33;1.67;;;;;;;6.79;92.56;100971.03;5020566;28;20202;-90
2023/10/16 02:12:00;;;;;;;3.57;1.77;;;;;;;6.87;91.65;100971.94;5014799;28;20313;-88
2023/10/16 02:14:27;;;;;;;4.60;2.03;;;;;;;6.79;91.94;100979.69;5016914;28;20214;-87
2023/10/16 02:16:57;;;;;;;5.40;1.60;;;;;;;6.71;92.38;100968.41;5015788;28;20211;-87
2023/10/16 02:19:25;;;;;;;2.40;1.80;;;;;;;6.59;92.83;100963.16;5023227;28;20284;-87
2023/10/16 02:21:53;;;;;;;6.10;2.00;;;;;;;6.42;94.14;100955.25;5016632;28;20887;-88
2023/10/16 02:24:20;;;;;;;5.20;2.17;;;;;;;6.17;94.82;100929.19;5015804;28;20607;-87
2023/10/16 02:26:55;;;;;;;3.00;1.97;;;;;;;6.20;96.33;100913.63;5015905;28;20215;-88
2023/10/16 02:29:23;;;;;;;3.10;1.73;;;;;;;6.26;95.99;100902.44;5020978;28;20201;-87
2023/10/16 02:31:50;;;;;;;3.47;2.10;;;;;;;6.42;95.94;100909.47;5036372;28;20230;-87
2023/10/16 02:34:22;;;;;;;3.63;2.07;;;;;;;6.25;95.15;100918.88;5022145;28;20203;-88
2023/10/16 02:36:51;;;;;;;3.53;1.93;;;;;;;6.26;95.62;100913.66;5015361;28;20253;-90
2023/10/16 02:39:35;;;;;;;5.33;2.10;;;;;;;6.51;94.75;100917.28;5021077;28;20272;-87
2023/10/16 02:42:08;;;;;;;3.73;1.90;;;;;;;6.67;92.87;100938.97;5017959;28;20246;-89
2023/10/16 02:44:39;;;;;;;4.10;1.70;;;;;;;6.75;92.27;100962.38;5026422;28;20264;-89
2023/10/16 02:47:06;;;;;;;4.20;2.10;;;;;;;6.37;92.97;100978.56;5024108;28;20234;-87
2023/10/16 02:49:34;;;;;;;4.37;2.43;;;;;;;6.36;93.30;100954.38;5014808;28;20565;-89
2023/10/16 02:52:00;;;;;;;5.37;1.70;;;;;;;6.47;93.75;100940.59;5024021;28;20227;-86
2023/10/16 02:54:27;;;;;;;5.83;2.00;;;;;;;6.63;92.84;100955.38;5015990;28;20229;-87
2023/10/16 02:56:59;;;;;;;3.57;2.20;;;;;;;6.69;92.94;100962.34;5016028;28;20218;-88
2023/10/16 02:59:26;;;;;;;4.63;2.33;;;;;;;6.64;92.82;100970.09;5028236;28;20701;-88
2023/10/16 03:01:53;;;;;;;2.90;1.83;;;;;;;6.65;91.97;100976.16;5034824;28;20229;-88
2023/10/16 03:04:23;;;;;;;6.83;2.10;;;;;;;6.63;91.90;100977.88;5015720;28;20214;-87
2023/10/16 03:06:53;;;;;;;3.23;1.97;;;;;;;6.69;91.43;100986.56;5015427;28;20214;-87
2023/10/16 03:09:28;;;;;;;4.57;1.90;;;;;;;6.63;92.49;100985.66;5016457;28;20207;-88
2023/10/16 03:12:04;;;;;;;1.97;1.77;;;;;;;6.61;92.38;100980.44;5024418;28;20763;-88
2023/10/16 03:14:44;;;;;;;1.80;1.70;;;;;;;6.69;92.40;100976.16;5015221;28;20206;-88
2023/10/16 03:17:12;;;;;;;2.53;1.73;;;;;;;6.80;91.44;100978.84;5016401;28;20214;-88
2023/10/16 03:19:38;;;;;;;4.93;2.13;;;;;;;6.80;90.94;100994.41;5016146;28;20597;-88
2023/10/16 03:22:11;;;;;;;3.03;1.90;;;;;;;6.82;91.32;101004.78;5015733;28;20239;-87
2023/10/16 03:24:38;;;;;;;2.57;1.73;;;;;;;6.85;90.49;101005.66;5016543;28;20235;-86
2023/10/16 03:27:08;;;;;;;4.50;2.53;;;;;;;6.79;90.83;101016.00;5016544;28;20203;-88
2023/10/16 03:29:34;;;;;;;5.77;2.50;;;;;;;6.68;91.70;101009.88;5022903;28;20206;-87
2023/10/16 03:32:01;;;;;;;3.80;1.83;;;;;;;6.74;91.45;101003.03;5027962;28;20229;-88
2023/10/16 03:34:27;;;;;;;3.87;2.30;;;;;;;6.67;91.64;101001.25;5020759;28;20211;-88
2023/10/16 03:37:01;;;;;;;3.47;2.10;;;;;;;6.64;92.00;100997.75;5027379;28;20206;-89
2023/10/16 03:39:29;;;;;;;2.47;2.20;;;;;;;6.71;91.64;100995.22;5015712;28;20269;-88
2023/10/16 03:41:57;;;;;;;4.93;2.40;;;;;;;6.78;91.41;101005.63;5035578;28;20244;-89
2023/10/16 03:44:26;;;;;;;3.90;3.00;;;;;;;6.61;91.56;101003.78;5020023;28;20235;-89
2023/10/16 03:46:53;;;;;;;5.93;2.63;;;;;;;6.56;92.43;100989.91;5021731;28;20286;-89
2023/10/16 03:49:19;;;;;;;3.57;3.00;;;;;;;6.56;93.30;100985.63;5020546;28;20214;-87
2023/10/16 03:51:46;;;;;;;4.10;2.60;;;;;;;6.62;92.07;100979.59;5020535;28;20227;-87
2023/10/16 03:54:14;;;;;;;3.97;2.73;;;;;;;6.65;92.27;100983.94;5019811;28;20576;-88
2023/10/16 03:56:42;;;;;;;5.17;2.70;;;;;;;6.65;92.35;100982.19;5036156;28;20605;-88
2023/10/16 03:59:11;;;;;;;3.27;2.67;;;;;;;6.65;91.83;100990.00;5029737;28;20226;-88
2023/10/16 04:01:39;;;;;;;4.63;2.50;;;;;;;6.69;92.11;100989.16;5032511;28;20687;-88
2023/10/16 04:04:12;;;;;;;4.07;2.60;;;;;;;6.38;92.48;101000.19;5040478;28;20245;-87
2023/10/16 04:06:39;;;;;;;3.90;3.20;;;;;;;6.34;94.03;100973.34;5040061;28;20210;-87
2023/10/16 04:09:09;;;;;;;3.53;2.70;;;;;;;6.16;94.56;100967.19;5037593;28;20203;-87
2023/10/16 04:11:37;;;;;;;3.83;2.90;;;;;;;6.10;95.11;100936.03;5020381;28;20222;-88
2023/10/16 04:14:14;;;;;;;4.77;3.03;;;;;;;6.34;95.85;100926.69;5020585;28;20222;-89
2023/10/16 04:16:42;;;;;;;4.73;3.17;;;;;;;6.23;96.40;100923.19;5021098;28;20786;-87
2023/10/16 04:21:50;;;;;;;4.20;2.80;;;;;;;6.51;96.00;100908.66;5019489;28;20223;-87
2023/10/16 04:30:06;;;;;;;3.90;2.97;;;;;;;6.38;97.92;100878.31;5027213;28;20233;-87
2023/10/16 04:32:39;;;;;;;4.17;3.33;;;;;;;6.15;98.48;100872.13;5035900;28;20317;-89
2023/10/16 04:35:29;;;;;;;6.17;3.23;;;;;;;6.20;98.44;100863.53;5050754;28;20209;-87
2023/10/16 04:37:55;;;;;;;5.83;3.23;;;;;;;6.28;99.73;100849.75;5058895;28;20190;-89
2023/10/16 04:43:09;;;;;;;7.37;3.23;;;;;;;6.36;99.25;100837.69;5056519;28;20263;-87
2023/10/16 04:51:17;;;;;;;4.90;3.27;;;;;;;6.97;95.22;100901.91;5048480;28;20206;-89
2023/10/16 04:53:59;;;;;;;4.37;2.87;;;;;;;7.01;93.67;100928.75;5041405;28;20749;-90
2023/10/16 04:59:36;;;;;;;4.27;3.30;;;;;;;7.08;93.07;100974.63;5024846;28;20225;-87
2023/10/16 05:02:16;;;;;;;4.53;4.10;;;;;;;7.17;92.35;100981.59;5025938;28;20227;-86
2023/10/16 05:07:45;;;;;;;3.60;3.30;;;;;;;7.21;92.61;100990.25;5031894;28;20300;-86
2023/10/16 05:18:46;;;;;;;5.33;4.00;;;;;;;7.11;93.19;101005.78;5017152;28;20221;-87
2023/10/16 06:16:01;;;;;;;5.03;4.20;;;;;;;7.10;97.60;100894.19;5037537;28;20224;-90
2023/10/16 06:18:29;;;;;;;4.70;4.30;;;;;;;7.33;96.46;100920.19;5040407;28;20195;-88
2023/10/16 06:21:00;;;;;;;7.93;4.67;;;;;;;7.38;94.82;100947.03;5053874;28;20218;-87
2023/10/16 06:23:29;;;;;;;6.37;3.77;;;;;;;7.48;94.56;100958.31;5037570;28;20290;-88
2023/10/16 06:26:01;;;;;;;5.10;4.63;;;;;;;7.53;93.95;100972.16;5045033;28;20194;-84
2023/10/16 06:28:27;;;;;;;4.47;4.07;;;;;;;7.40;93.33;100986.88;5040380;28;20216;-83
2023/10/16 06:30:54;;;;;;;7.47;4.43;;;;;;;7.46;93.81;100992.06;5048087;28;20195;-86
2023/10/16 06:33:20;;;;;;;5.97;5.30;;;;;;;7.35;94.60;100996.34;5048302;28;20207;-87
2023/10/16 06:35:47;;;;;;;6.63;4.33;;;;;;;7.37;95.25;100989.44;5035328;28;20214;-88
2023/10/16 06:38:14;;;;;;;4.80;4.40;;;;;;;7.39;95.12;100982.50;5028209;28;20207;-88
2023/10/16 06:40:44;;;;;;;6.50;5.47;;;;;;;7.27;95.09;100977.28;5027926;28;20257;-88
2023/10/16 06:43:10;;;;;;;5.67;5.03;;;;;;;7.39;95.32;100979.06;5029936;28;20296;-87
2023/10/16 06:45:42;;;;;;;7.23;4.60;;;;;;;7.42;95.48;100982.53;5033536;28;20226;-88
2023/10/16 06:48:14;;;;;;;4.90;4.40;;;;;;;7.36;94.56;100987.72;5030261;28;20265;-84
2023/10/16 06:51:14;;;;;;;4.60;4.20;;;;;;;7.19;95.92;100981.59;5036992;28;20203;-87
2023/10/16 06:53:42;;;;;;;5.37;4.87;;;;;;;7.39;94.69;100985.13;5016872;28;20796;-86
2023/10/16 06:56:32;;;;;;;6.30;5.37;;;;;;;7.32;96.12;100979.03;5025151;28;20301;-86
2023/10/16 06:59:27;;;;;;;5.87;5.10;;;;;;;7.50;95.67;100964.38;5027970;28;20279;-89
2023/10/16 07:01:54;;;;;;;6.00;5.10;;;;;;;7.66;95.72;100973.94;4996278;28;20244;-84
2023/10/16 07:04:31;;;;;;;5.10;4.60;;;;;;;7.72;95.05;100986.94;5016540;28;20600;-86
2023/10/16 07:06:59;;;;;;;7.77;5.17;;;;;;;7.78;94.32;101000.81;5014437;28;20285;-85
2023/10/16 07:09:36;;;;;;;7.10;4.77;;;;;;;7.66;94.18;100997.31;5019548;28;20837;-90
2023/10/16 07:12:06;;;;;;;5.33;4.83;;;;;;;7.50;94.96;100993.81;5014622;28;20700;-86
2023/10/16 07:14:32;;;;;;;5.20;4.67;;;;;;;7.27;96.48;100979.88;5015056;28;20218;-87
2023/10/16 07:17:25;;;;;;;5.90;5.03;;;;;;;7.35;97.20;100960.00;5028145;28;20218;-89
2023/10/16 07:19:58;;;;;;;5.33;4.83;;;;;;;7.43;97.40;100942.69;5018171;28;20238;-88
2023/10/16 07:22:31;;;;;;;5.27;4.70;;;;;;;7.49;98.26;100929.75;5033941;28;20230;-86
2023/10/16 07:24:56;;;;;;;4.90;4.40;;;;;;;7.59;97.18;100935.84;5027237;28;20233;-86
2023/10/16 07:27:25;;;;;;;5.70;4.57;;;;;;;7.65;97.64;100945.34;5021359;28;20242;-88
2023/10/16 07:29:51;;;;;;;5.97;4.73;;;;;;;7.65;97.65;100955.72;5027318;28;20202;-89
2023/10/16 07:32:23;;;;;;;6.07;4.73;;;;;;;7.83;97.08;100941.88;5019995;28;20290;-88
2023/10/16 07:34:51;;;;;;;6.60;4.10;;;;;;;7.78;97.21;100952.28;5035099;28;20221;-88
2023/10/16 07:40:41;;;;;;;6.33;4.40;;;;;;;7.79;98.77;100932.34;5005706;28;20214;-88
2023/10/16 07:43:45;;;;;;;5.47;4.67;;;;;;;7.76;98.56;100944.50;5025442;28;20222;-88
2023/10/16 07:46:19;;;;;;;5.00;4.60;;;;;;;7.61;98.08;100941.91;5025454;28;20242;-88
2023/10/16 07:48:50;;;;;;;4.03;3.63;;;;;;;7.76;99.33;100925.44;5028491;28;20207;-88
2023/10/16 07:51:20;;;;;;;6.17;4.50;;;;;;;7.78;99.01;100934.09;5034767;28;20213;-89
2023/10/16 07:53:53;;;;;;;5.33;4.40;;;;;;;8.01;98.79;100920.22;5034447;28;20218;-87
2023/10/16 07:56:25;;;;;;;4.87;4.47;;;;;;;8.11;98.11;100930.63;5034229;28;20276;-86
2023/10/16 07:58:54;;;;;;;5.47;4.97;;;;;;;7.87;98.21;100943.63;5036237;28;20198;-88
2023/10/16 08:01:36;;;;;;;4.97;3.93;;;;;;;7.94;97.87;100940.16;5039992;28;20230;-89
2023/10/16 08:04:03;;;;;;;5.67;3.73;;;;;;;7.61;98.33;100949.69;5030673;28;20225;-87
2023/10/16 08:06:30;;;;;;;5.47;4.43;;;;;;;7.85;99.09;100929.75;5018282;28;20318;-88
2023/10/16 08:11:42;;;;;;;5.27;4.60;;;;;;;8.13;98.14;100943.63;5019799;28;20253;-89
2023/10/16 08:14:22;;;;;;;;;;;;;;;;;;;;;
2023/10/16 08:19:44;;;;;;;5.93;5.33;;;;;;;8.18;97.47;100959.22;5031558;28;20865;-87
2023/10/16 08:22:13;;;;;;;5.50;5.00;;;;;;;8.19;97.19;100961.84;5028007;28;20227;-86
2023/10/16 08:24:43;;;;;;;5.87;5.37;;;;;;;8.18;97.30;100973.09;5031436;28;20206;-87
2023/10/16 08:27:16;;;;;;;6.67;5.87;;;;;;;8.18;97.52;100965.28;5027166;28;20301;-85
2023/10/16 08:29:51;;;;;;;5.93;5.43;;;;;;;8.25;97.07;100980.03;5037012;28;20700;-89
2023/10/16 08:32:53;;;;;;;6.40;5.80;;;;;;;8.09;98.31;100968.78;5039308;28;20336;-85
2023/10/16 08:35:19;;;;;;;5.90;5.40;;;;;;;8.29;97.33;100966.16;5038127;28;20206;-88
2023/10/16 08:37:56;;;;;;;7.40;6.80;;;;;;;8.33;96.91;100986.09;5039838;28;20209;-88
2023/10/16 08:40:24;;;;;;;5.17;4.67;;;;;;;8.33;96.67;100999.09;5030374;28;20230;-88
2023/10/16 08:43:00;;;;;;;5.70;5.23;;;;;;;8.38;96.57;101003.44;5031519;28;20227;-86
2023/10/16 08:45:27;;;;;;;7.77;5.93;;;;;;;8.09;96.86;101007.78;5021085;28;20210;-89
2023/10/16 08:47:57;;;;;;;6.83;5.10;;;;;;;8.23;97.09;101002.56;5028911;28;20214;-89
2023/10/16 08:54:53;;;;;;;9.37;6.57;;;;;;;8.13;99.20;100964.44;5031965;28;20225;-88
2023/10/16 09:07:07;;;;;;;6.40;5.90;;;;;;;8.54;95.85;101028.59;4920942;29;20206;-90
2023/10/16 09:09:33;;;;;;;5.97;5.37;;;;;;;8.28;95.80;101041.56;4970023;28;20272;-89
2023/10/16 09:12:04;;;;;;;5.60;5.10;;;;;;;8.51;95.95;101023.41;4975895;28;20250;-86
2023/10/16 09:14:32;;;;;;;6.37;5.77;;;;;;;8.65;95.81;101025.97;5017199;28;20235;-85
2023/10/16 09:17:00;;;;;;;8.77;6.63;;;;;;;8.74;95.46;101041.56;5029798;28;20288;-87
2023/10/16 09:19:33;;;;;;;7.30;5.93;;;;;;;8.98;95.22;101044.97;5029439;28;20216;-87
2023/10/16 09:22:00;;;;;;;6.50;6.00;;;;;;;8.52;95.47;101056.34;5027969;28;20234;-86
2023/10/16 09:24:28;;;;;;;7.10;6.33;;;;;;;8.87;95.66;101035.47;5029806;28;20214;-86
2023/10/16 09:26:55;;;;;;;7.47;6.70;;;;;;;9.14;96.22;101038.88;5031658;28;20229;-87
2023/10/16 09:29:25;;;;;;;7.50;5.90;;;;;;;9.21;93.64;101073.59;5028502;28;20199;-84
2023/10/16 09:31:51;;;;;;;5.90;5.37;;;;;;;9.02;92.33;101104.88;5030210;28;20227;-87
2023/10/16 09:34:25;;;;;;;7.07;5.50;;;;;;;8.69;93.52;101109.25;5030066;28;20199;-86
2023/10/16 09:39:35;;;;;;;10.97;6.87;;;;;;;8.88;95.54;101062.38;5025158;28;20209;-85
2023/10/16 09:42:11;;;;;;;6.17;5.60;;;;;;;8.74;95.39;101054.56;5028966;28;20226;-88
2023/10/16 09:44:39;;;;;;;7.30;6.33;;;;;;;8.70;95.97;101042.44;5028415;28;20207;-87
2023/10/16 09:49:47;;;;;;;9.10;6.53;;;;;;;9.05;96.25;101026.75;5026968;28;20202;-87
2023/10/16 09:52:19;;;;;;;9.63;5.93;;;;;;;8.93;96.44;101039.81;5029571;28;20611;-88
2023/10/16 09:54:46;;;;;;;5.57;5.17;;;;;;;9.00;95.55;101036.31;5034176;28;20209;-88
2023/10/16 09:57:18;;;;;;;6.83;5.10;;;;;;;9.33;96.01;101024.88;5027684;28;20203;-87
2023/10/16 09:59:44;;;;;;;11.27;7.63;;;;;;;9.28;95.12;101044.03;5025001;28;20230;-86
2023/10/16 10:02:17;;;;;;;5.90;5.30;;;;;;;9.38;96.47;101032.72;5042434;23;21353;-80
2023/10/16 10:04:53;;;;;;;4.00;3.60;;;;;;;9.12;93.85;101058.84;5007869;28;20210;-82
2023/10/16 10:07:34;;;;;;;4.67;4.17;;;;;;;9.39;95.10;101054.41;5006441;28;20217;-84
2023/10/16 10:10:39;;;;;;;3.83;3.27;;;;;;;9.39;92.55;101083.94;5006099;28;20203;-83
2023/10/16 10:12:53;;;;;;;3.77;3.40;;;;;;;9.63;92.04;101108.16;5007662;28;20259;-83
2023/10/16 10:15:26;;;;;;;4.27;3.30;;;;;;;9.48;92.38;101123.00;5007634;28;20235;-82
2023/10/16 10:17:55;;;;;;;4.20;3.40;;;;;;;9.47;92.32;101123.00;5009507;28;20682;-82
2023/10/16 10:20:26;;;;;;;5.13;3.47;;;;;;;9.61;93.09;101102.09;5006858;28;20215;-83
2023/10/16 10:22:59;;;;;;;7.27;3.20;;;;;;;9.62;93.09;101103.84;5009188;28;20222;-83
2023/10/16 10:25:26;;;;;;;2.87;2.67;;;;;;;9.79;91.90;101124.59;5009294;28;20564;-82
2023/10/16 10:27:56;;;;;;;4.20;3.60;;;;;;;9.97;90.87;101137.56;5008189;28;20207;-80
2023/10/16 10:30:26;;;;;;;3.83;2.50;;;;;;;9.81;90.34;101154.13;5005905;28;20210;-83
2023/10/16 10:32:55;;;;;;;3.30;2.67;;;;;;;9.67;92.25;101148.97;5007917;28;20249;-82
2023/10/16 10:35:26;;;;;;;6.23;2.90;;;;;;;9.83;95.54;101087.22;5005181;28;20208;-81
2023/10/16 10:38:17;;;;;;;3.80;3.40;;;;;;;9.71;96.32;101047.31;5009220;28;20208;-81
2023/10/16 10:41:14;;;;;;;5.00;3.37;;;;;;;9.52;97.99;101010.03;5005395;28;20230;-84
2023/10/16 10:43:46;;;;;;;3.10;2.60;;;;;;;9.51;100.00;100970.94;5006519;28;20229;-84
2023/10/16 10:46:13;;;;;;;3.13;2.77;;;;;;;9.81;97.60;100967.31;5005849;28;20571;-84
2023/10/16 10:48:40;;;;;;;2.90;2.60;;;;;;;9.77;94.56;101012.50;5006378;28;20261;-83
2023/10/16 10:51:13;;;;;;;2.60;2.40;;;;;;;9.83;95.64;101035.06;5001383;28;20217;-81
2023/10/16 10:53:52;;;;;;;3.47;2.30;;;;;;;9.67;96.52;101021.25;5008787;28;20227;-83
2023/10/16 10:56:20;;;;;;;3.30;3.10;;;;;;;9.62;99.76;100974.38;5004381;28;20639;-82
2023/10/16 10:58:47;;;;;;;2.93;2.50;;;;;;;9.78;98.23;100964.72;5005983;28;20207;-83
2023/10/16 11:01:26;;;;;;;2.87;2.67;;;;;;;9.98;97.41;100981.94;5003645;28;20223;-82
2023/10/16 11:03:53;;;;;;;3.60;2.60;;;;;;;9.96;94.89;101009.78;5004919;28;20227;-84
2023/10/16 11:06:21;;;;;;;4.37;2.43;;;;;;;9.71;95.69;101030.78;5003944;28;20231;-83
2023/10/16 11:08:55;;;;;;;2.90;2.40;;;;;;;9.71;97.81;100992.56;5007418;28;20199;-83
2023/10/16 11:11:22;;;;;;;4.13;2.13;;;;;;;9.45;100.00;100958.81;5005885;28;20207;-82
2023/10/16 11:13:49;;;;;;;2.00;1.90;;;;;;;9.28;100.00;100945.06;5007755;28;20226;-82
2023/10/16 11:16:16;;;;;;;2.40;2.03;;;;;;;9.21;100.00;100919.91;5005769;28;20210;-81
2023/10/16 11:18:57;;;;;;;3.30;2.13;;;;;;;9.31;100.00;100906.78;5007011;28;20207;-84
2023/10/16 11:21:25;;;;;;;3.83;1.73;;;;;;;9.55;100.00;100891.88;5007678;28;20632;-83
2023/10/16 11:23:55;;;;;;;2.10;1.60;;;;;;;9.69;98.53;100923.94;5007441;28;20285;-84
2023/10/16 11:26:22;;;;;;;3.20;1.80;;;;;;;10.14;97.05;100966.13;5004330;28;20207;-84
2023/10/16 11:28:49;;;;;;;3.70;1.87;;;;;;;10.29;97.06;100969.53;5007108;28;20195;-84
2023/10/16 11:31:18;;;;;;;3.43;1.60;;;;;;;10.44;94.95;100999.84;5005133;28;20199;-85
2023/10/16 11:33:45;;;;;;;4.37;2.60;;;;;;;10.75;90.42;101070.06;5004934;28;20749;-84
2023/10/16 11:36:13;;;;;;;2.10;1.90;;;;;;;10.77;88.35;101141.41;5008315;28;20210;-85
2023/10/16 11:38:40;;;;;;;2.40;1.60;;;;;;;10.64;86.84;101187.63;5013860;28;20575;-83
2023/10/16 11:41:16;;;;;;;3.17;1.80;;;;;;;10.73;87.37;101208.47;5012339;28;20232;-84
2023/10/16 11:43:51;;;;;;;3.00;1.47;;;;;;;10.83;87.41;101215.34;5007336;28;20305;-83
2023/10/16 11:46:31;;;;;;;1.33;1.30;;;;;;;10.62;87.06;101234.63;5011094;28;20207;-82
2023/10/16 11:51:45;;;;;;;3.03;1.50;;;;;;;10.48;87.40;101229.47;5010992;28;20263;-81
2023/10/16 11:54:11;;;;;;;2.03;1.73;;;;;;;10.70;88.12;101232.84;5004088;28;20211;-82
2023/10/16 11:56:41;;;;;;;5.07;2.80;;;;;;;10.76;86.12;101244.13;4317116;28;10000660;-81
2023/10/16 11:59:12;;;;;;;2.60;2.40;;;;;;;11.20;85.85;101248.13;5007350;28;20205;-81
2023/10/16 12:01:38;;;;;;;3.97;2.07;;;;;;;11.52;83.39;101285.31;5008148;28;20729;-83
2023/10/16 12:04:05;;;;;;;4.37;1.80;;;;;;;11.74;80.79;101337.44;5010919;28;20213;-82
2023/10/16 12:06:33;;;;;;;2.33;1.60;;;;;;;12.48;78.86;101392.50;5010619;28;20268;-83
2023/10/16 12:08:59;;;;;;;2.40;1.53;;;;;;;13.18;76.44;101441.44;5008526;28;20289;-81
2023/10/16 12:11:26;;;;;;;3.70;1.97;;;;;;;12.45;74.78;101536.59;5011307;28;20211;-82
2023/10/16 12:13:54;;;;;;;1.43;1.33;;;;;;;11.63;77.16;101546.72;5010666;28;20728;-81
2023/10/16 12:16:24;;;;;;;3.10;1.47;;;;;;;11.44;78.83;101506.75;5011463;28;20205;-81
2023/10/16 12:18:51;;;;;;;3.20;1.70;;;;;;;10.94;81.34;101471.25;5004122;28;20733;-82
2023/10/16 12:21:19;;;;;;;2.27;1.60;;;;;;;11.30;82.89;101381.34;5008566;28;20235;-81
2023/10/16 12:23:47;;;;;;;3.67;1.50;;;;;;;11.54;80.05;101405.59;5009626;28;20231;-81
2023/10/16 12:26:16;;;;;;;2.73;1.20;;;;;;;11.68;79.28;101422.03;5007599;28;20212;-83
2023/10/16 12:28:43;;;;;;;2.47;1.37;;;;;;;12.32;78.03;101431.09;5009392;28;20773;-83
2023/10/16 12:31:12;;;;;;;2.20;1.40;;;;;;;12.59;75.86;101486.69;5010478;28;20212;-83
2023/10/16 12:33:40;;;;;;;3.40;1.50;;;;;;;12.13;74.93;101549.97;5009883;28;20229;-83
2023/10/16 12:36:10;;;;;;;5.80;1.23;;;;;;;11.92;76.45;101546.59;5009069;28;20209;-83
2023/10/16 12:38:37;;;;;;;1.37;1.27;;;;;;;12.08;77.30;101502.00;5009597;28;20236;-83
2023/10/16 12:41:06;;;;;;;2.00;1.23;;;;;;;11.73;76.67;101524.00;5009395;28;20213;-83
2023/10/16 12:43:32;;;;;;;4.57;1.20;;;;;;;11.83;78.39;101496.94;5007798;28;20228;-84
2023/10/16 12:45:59;;;;;;;1.43;1.07;;;;;;;11.66;79.77;101460.41;5010140;28;20223;-82
2023/10/16 12:48:29;;;;;;;1.80;1.70;;;;;;;11.62;83.62;101364.56;5009354;28;20219;-81
2023/10/16 12:50:59;;;;;;;2.53;2.17;;;;;;;11.33;89.42;101253.25;5010140;28;20214;-82
2023/10/16 12:53:26;;;;;;;2.50;1.80;;;;;;;10.33;94.71;101127.81;5003230;28;20231;-82
2023/10/16 12:55:55;;;;;;;2.40;2.20;;;;;;;10.06;100.00;101001.00;5007303;28;20230;-83
2023/10/16 12:58:22;;;;;;;3.97;2.00;;;;;;;10.34;100.00;100910.34;5008521;28;20207;-83
2023/10/16 13:00:51;;;;;;;2.23;1.93;;;;;;;10.68;100.00;100884.75;5010349;28;20211;-82
2023/10/16 13:03:20;;;;;;;1.47;1.30;;;;;;;10.60;98.30;100925.72;5007873;28;20237;-83
2023/10/16 13:05:52;;;;;;;2.43;1.47;;;;;;;10.72;97.43;100959.53;5010032;28;20206;-82
2023/10/16 13:08:20;;;;;;;2.70;1.43;;;;;;;10.52;97.73;100958.88;5007482;28;20293;-83
2023/10/16 13:10:48;;;;;;;3.47;1.37;;;;;;;10.57;99.16;100940.56;5009762;28;20260;-84
2023/10/16 13:13:20;;;;;;;1.47;1.30;;;;;;;10.70;99.78;100919.53;5010594;28;20314;-84
2023/10/16 13:15:51;;;;;;;2.17;1.57;;;;;;;10.68;98.08;100923.91;5010032;28;20592;-85
2023/10/16 13:18:24;;;;;;;12.07;9.20;;;;;;;10.42;99.67;100915.47;5010556;28;20270;-82
2023/10/16 13:20:57;;;;;;;135.63;95.50;;;;;;;10.57;99.95;100904.88;5011996;28;20614;-84
2023/10/16 13:23:25;;;;;;;6.90;6.07;;;;;;;10.11;100.00;100892.28;5002087;28;20232;-84
2023/10/16 13:25:56;;;;;;;7.73;7.23;;;;;;;10.20;100.00;100881.75;5007944;28;20211;-84
2023/10/16 13:28:25;;;;;;;1.50;1.40;;;;;;;10.51;100.00;100884.06;5009021;28;20226;-83
2023/10/16 13:30:52;;;;;;;6.37;5.87;;;;;;;10.55;99.34;100898.81;5006774;28;20208;-82
2023/10/16 13:33:19;;;;;;;4.53;4.23;;;;;;;10.47;96.70;100940.66;5006462;28;20721;-83
2023/10/16 13:35:46;;;;;;;2.97;2.67;;;;;;;10.24;96.68;100959.09;5007905;28;20203;-83
2023/10/16 13:38:14;;;;;;;4.67;4.23;;;;;;;10.29;97.67;100949.50;5008514;28;20217;-83
2023/10/16 13:40:43;;;;;;;3.17;2.30;;;;;;;10.66;98.44;100935.22;5003403;28;20254;-82
2023/10/16 13:43:11;;;;;;;8.60;6.73;;;;;;;10.83;97.09;100950.72;5006607;28;20701;-82